createdAt,value
2023-01-26T00:01:20.262Z,-0.20
2023-01-26T00:03:47.243Z,-0.30
2023-01-26T00:06:17.072Z,-0.30
2023-01-26T00:08:57.136Z,-0.20
2023-01-26T00:11:29.560Z,-0.10
2023-01-26T00:13:58.118Z,-0.20
2023-01-26T00:16:25.214Z,-0.20
2023-01-26T00:18:51.969Z,-0.20
2023-01-26T00:21:20.844Z,-0.10
2023-01-26T00:23:48.720Z,0.00
2023-01-26T00:26:19.049Z,0.10
2023-01-26T00:28:46.185Z,0.00
2023-01-26T00:31:15.815Z,0.00
2023-01-26T00:33:42.588Z,0.00
2023-01-26T00:36:09.527Z,0.00
2023-01-26T00:38:36.322Z,0.10
2023-01-26T00:41:03.112Z,0.10
2023-01-26T00:43:30.057Z,0.10
2023-01-26T00:45:56.772Z,0.10
2023-01-26T00:48:24.803Z,0.20
2023-01-26T00:50:52.461Z,0.00
2023-01-26T00:53:19.437Z,0.10
2023-01-26T00:55:46.166Z,-0.10
2023-01-26T00:58:12.901Z,-0.10
2023-01-26T01:00:40.017Z,-0.10
2023-01-26T01:03:07.424Z,-0.20
2023-01-26T01:05:35.045Z,-0.20
2023-01-26T01:08:02.362Z,-0.20
2023-01-26T01:10:29.590Z,-0.30
2023-01-26T01:12:56.847Z,-0.30
2023-01-26T01:15:24.600Z,-0.30
2023-01-26T01:17:51.958Z,-0.20
2023-01-26T01:20:18.726Z,-0.20
2023-01-26T01:22:45.419Z,-0.20
2023-01-26T01:25:12.262Z,-0.10
2023-01-26T01:27:39.024Z,-0.10
2023-01-26T01:30:08.233Z,0.00
2023-01-26T01:32:40.032Z,0.00
2023-01-26T01:35:07.657Z,0.00
2023-01-26T01:37:34.694Z,0.10
2023-01-26T01:40:01.491Z,0.10
2023-01-26T01:42:28.313Z,0.10
2023-01-26T01:45:25.908Z,0.10
2023-01-26T01:47:57.241Z,0.10
2023-01-26T01:50:24.949Z,0.20
2023-01-26T01:52:53.398Z,0.10
2023-01-26T01:55:20.335Z,0.10
2023-01-26T01:57:53.841Z,0.10
2023-01-26T02:00:23.074Z,0.00
2023-01-26T02:03:33.860Z,0.00
2023-01-26T02:06:22.843Z,0.00
2023-01-26T02:08:52.172Z,-0.10
2023-01-26T02:11:42.275Z,-0.10
2023-01-26T02:14:10.025Z,-0.10
2023-01-26T02:16:39.851Z,-0.20
2023-01-26T02:19:14.908Z,-0.20
2023-01-26T02:21:42.205Z,-0.20
2023-01-26T02:24:18.090Z,-0.30
2023-01-26T02:26:44.838Z,0.60
2023-01-26T02:29:11.915Z,-0.30
2023-01-26T02:31:39.091Z,-0.30
2023-01-26T02:34:05.863Z,0.60
2023-01-26T02:36:34.358Z,-0.30
2023-01-26T02:39:19.608Z,-0.30
2023-01-26T02:42:06.548Z,-0.30
2023-01-26T02:44:33.359Z,-0.30
2023-01-26T02:47:00.050Z,-0.40
2023-01-26T02:49:45.574Z,-0.40
2023-01-26T02:52:12.308Z,-0.40
2023-01-26T02:54:57.548Z,-0.40
2023-01-26T02:57:24.214Z,-0.50
2023-01-26T02:59:51.024Z,-0.50
2023-01-26T03:02:17.994Z,-0.60
2023-01-26T03:04:44.698Z,-0.60
2023-01-26T03:07:11.399Z,-0.60
2023-01-26T03:09:38.089Z,-0.50
2023-01-26T03:12:04.961Z,-0.40
2023-01-26T03:14:31.663Z,-0.40
2023-01-26T03:16:58.359Z,-0.40
2023-01-26T03:19:43.758Z,-0.30
2023-01-26T03:22:30.156Z,-0.30
2023-01-26T03:25:15.480Z,-0.40
2023-01-26T03:27:43.946Z,0.50
2023-01-26T03:30:12.122Z,-0.40
2023-01-26T03:32:39.359Z,-0.50
2023-01-26T03:35:06.717Z,-0.50
2023-01-26T03:37:37.002Z,-0.50
2023-01-26T03:40:23.161Z,-0.50
2023-01-26T03:43:08.551Z,-0.60
2023-01-26T03:45:53.677Z,-0.60
2023-01-26T03:48:39.035Z,-0.60
2023-01-26T03:51:24.413Z,-0.60
2023-01-26T03:54:09.780Z,-0.60
2023-01-26T03:56:36.467Z,-0.70
2023-01-26T03:59:12.904Z,-0.70
2023-01-26T04:01:41.775Z,-0.80
2023-01-26T04:04:27.863Z,-0.80
2023-01-26T04:07:13.019Z,-0.80
2023-01-26T04:09:39.770Z,-0.80
2023-01-26T04:12:07.108Z,-0.90
2023-01-26T04:14:52.292Z,-0.90
2023-01-26T04:17:37.636Z,-0.90
2023-01-26T04:20:24.820Z,-1.00
2023-01-26T04:22:51.540Z,-1.00
2023-01-26T04:25:19.998Z,-1.00
2023-01-26T04:27:46.807Z,-1.10
2023-01-26T04:30:15.125Z,-1.10
2023-01-26T04:32:42.107Z,-1.10
2023-01-26T04:35:10.021Z,-1.10
2023-01-26T04:37:36.940Z,-1.10
2023-01-26T04:40:04.396Z,-1.10
2023-01-26T04:42:31.279Z,-1.10
2023-01-26T04:44:57.959Z,-1.10
2023-01-26T04:47:24.621Z,-1.00
2023-01-26T04:49:51.295Z,-1.10
2023-01-26T04:52:17.948Z,-1.10
2023-01-26T04:54:44.671Z,-1.10
2023-01-26T04:57:11.372Z,-0.10
2023-01-26T04:59:38.396Z,-1.10
2023-01-26T05:02:05.287Z,-1.10
2023-01-26T05:04:32.096Z,-1.10
2023-01-26T05:06:58.789Z,-1.10
2023-01-26T05:09:25.613Z,-1.10
2023-01-26T05:11:52.307Z,-1.10
2023-01-26T05:14:19.072Z,-1.10
2023-01-26T05:16:45.873Z,-0.40
2023-01-26T05:19:13.034Z,-1.10
2023-01-26T05:21:39.752Z,-1.10
2023-01-26T05:24:08.430Z,-1.20
2023-01-26T05:26:35.171Z,-1.20
2023-01-26T05:29:01.906Z,-1.20
2023-01-26T05:31:28.630Z,-1.20
2023-01-26T05:33:55.417Z,-1.20
2023-01-26T05:36:22.073Z,-1.20
2023-01-26T05:38:48.760Z,-1.20
2023-01-26T05:41:15.450Z,-1.20
2023-01-26T05:43:42.130Z,-1.30
2023-01-26T05:46:08.858Z,-1.30
2023-01-26T05:48:35.818Z,-1.30
2023-01-26T05:51:04.052Z,-1.30
2023-01-26T05:53:30.776Z,-1.30
2023-01-26T05:55:57.519Z,-1.30
2023-01-26T05:58:24.180Z,-1.30
2023-01-26T06:00:50.901Z,-1.40
2023-01-26T06:03:17.610Z,-1.40
2023-01-26T06:05:44.294Z,-0.30
2023-01-26T06:08:10.944Z,-1.40
2023-01-26T06:10:37.601Z,-1.10
2023-01-26T06:13:04.271Z,-1.30
2023-01-26T06:15:30.920Z,-1.20
2023-01-26T06:17:57.666Z,-1.10
2023-01-26T06:20:24.310Z,-1.20
2023-01-26T06:22:50.985Z,-1.20
2023-01-26T06:25:17.748Z,-1.20
2023-01-26T06:27:44.479Z,-1.20
2023-01-26T06:30:11.783Z,-1.20
2023-01-26T06:32:38.690Z,-1.20
2023-01-26T06:35:06.739Z,-1.20
2023-01-26T06:37:33.638Z,-1.30
2023-01-26T06:40:00.299Z,-1.30
2023-01-26T06:42:26.947Z,-1.30
2023-01-26T06:44:53.747Z,-1.40
2023-01-26T06:47:20.425Z,-1.30
2023-01-26T06:49:47.103Z,-1.40
2023-01-26T06:52:26.365Z,-1.30
2023-01-26T06:54:53.547Z,-1.30
2023-01-26T06:57:20.204Z,-1.30
2023-01-26T06:59:46.937Z,-1.40
2023-01-26T07:02:21.322Z,-1.40
2023-01-26T07:04:49.003Z,-1.40
2023-01-26T07:07:15.923Z,-1.40
2023-01-26T07:09:42.611Z,-1.50
2023-01-26T07:12:09.541Z,-1.40
2023-01-26T07:14:36.287Z,-1.40
2023-01-26T07:17:03.135Z,-1.30
2023-01-26T07:19:31.297Z,-1.30
2023-01-26T07:21:58.052Z,-1.20
2023-01-26T07:24:25.090Z,-1.20
2023-01-26T07:26:51.902Z,-1.30
2023-01-26T07:29:18.707Z,-1.30
2023-01-26T07:31:45.479Z,-1.30
2023-01-26T07:34:12.687Z,-1.30
2023-01-26T07:36:39.669Z,-1.40
2023-01-26T07:39:08.324Z,-1.40
2023-01-26T07:41:35.535Z,-1.30
2023-01-26T07:44:02.324Z,-1.30
2023-01-26T07:46:29.114Z,-1.20
2023-01-26T07:48:56.697Z,-1.20
2023-01-26T07:51:23.801Z,-1.20
2023-01-26T07:53:50.466Z,-1.20
2023-01-26T07:56:21.336Z,-1.20
2023-01-26T07:58:54.954Z,-1.30
2023-01-26T08:01:22.253Z,-1.30
2023-01-26T08:03:51.363Z,-1.20
2023-01-26T08:06:18.563Z,-1.20
2023-01-26T08:08:50.924Z,-1.30
2023-01-26T08:11:19.371Z,-1.30
2023-01-26T08:13:46.137Z,-1.20
2023-01-26T08:16:13.144Z,-1.30
2023-01-26T08:18:44.963Z,-1.20
2023-01-26T08:21:13.093Z,-1.20
2023-01-26T08:23:40.003Z,-1.20
2023-01-26T08:26:09.396Z,-1.20
2023-01-26T08:28:36.735Z,-1.30
2023-01-26T08:31:05.146Z,-1.30
2023-01-26T08:33:32.674Z,-1.30
2023-01-26T08:36:08.045Z,-1.30
2023-01-26T08:38:34.972Z,-1.30
2023-01-26T08:41:02.702Z,-1.30
2023-01-26T08:43:29.511Z,-1.30
2023-01-26T08:45:56.537Z,-1.30
2023-01-26T08:48:23.241Z,-1.30
2023-01-26T08:50:55.029Z,-1.30
2023-01-26T08:53:22.254Z,-1.30
2023-01-26T08:55:49.635Z,-1.20
2023-01-26T08:58:16.543Z,-1.10
2023-01-26T09:00:43.357Z,-1.10
2023-01-26T09:03:10.409Z,-1.10
2023-01-26T09:05:38.682Z,-1.10
2023-01-26T09:08:06.855Z,-1.10
2023-01-26T09:10:33.861Z,-1.20
2023-01-26T09:13:01.396Z,-1.20
2023-01-26T09:15:28.484Z,-1.20
2023-01-26T09:17:55.137Z,-1.20
2023-01-26T09:20:22.156Z,-1.20
2023-01-26T09:22:48.867Z,-1.20
2023-01-26T09:25:15.658Z,-1.20
2023-01-26T09:27:42.346Z,-1.20
2023-01-26T09:30:10.052Z,-1.20
2023-01-26T09:32:36.772Z,-1.20
2023-01-26T09:35:03.615Z,-1.20
2023-01-26T09:37:30.429Z,-1.10
2023-01-26T09:39:57.081Z,-1.10
2023-01-26T09:42:38.071Z,-1.10
2023-01-26T09:45:19.672Z,-1.10
2023-01-26T09:48:17.064Z,-1.10
2023-01-26T09:50:54.355Z,-1.20
2023-01-26T09:53:29.122Z,-1.20
2023-01-26T09:55:55.825Z,-1.20
2023-01-26T09:58:37.628Z,-1.20
2023-01-26T10:01:04.961Z,-1.30
2023-01-26T10:03:35.225Z,-1.30
2023-01-26T10:06:26.874Z,-1.30
2023-01-26T10:08:59.239Z,-1.40
2023-01-26T10:11:35.224Z,-1.30
2023-01-26T10:14:09.905Z,-1.40
2023-01-26T10:16:36.575Z,-1.20
2023-01-26T10:19:17.151Z,-1.40
2023-01-26T10:21:46.650Z,-1.40
2023-01-26T10:24:14.424Z,-1.40
2023-01-26T10:26:41.638Z,-1.40
2023-01-26T10:29:15.504Z,-1.40
2023-01-26T10:31:42.365Z,-1.50
2023-01-26T10:34:23.818Z,-1.50
2023-01-26T10:36:50.544Z,-1.50
2023-01-26T10:39:18.183Z,-1.50
2023-01-26T10:42:02.652Z,-1.50
2023-01-26T10:44:34.263Z,-1.50
2023-01-26T10:47:16.171Z,-1.50
2023-01-26T10:49:43.551Z,-1.50
2023-01-26T10:52:19.170Z,-1.50
2023-01-26T10:54:46.352Z,-1.50
2023-01-26T10:57:30.541Z,-1.50
2023-01-26T10:59:59.244Z,-0.50
2023-01-26T11:02:29.179Z,-1.60
2023-01-26T11:05:08.304Z,-1.60
2023-01-26T11:07:40.298Z,-1.60
2023-01-26T11:10:25.055Z,-1.50
2023-01-26T11:12:55.971Z,-1.60
2023-01-26T11:15:24.533Z,-1.60
2023-01-26T11:18:23.606Z,-1.60
2023-01-26T11:21:12.906Z,-1.60
2023-01-26T11:23:49.463Z,-1.60
2023-01-26T11:26:30.745Z,-1.60
2023-01-26T11:29:16.066Z,-1.60
2023-01-26T11:32:13.426Z,-1.60
2023-01-26T11:34:58.391Z,-1.60
2023-01-26T11:37:40.422Z,-1.70
2023-01-26T11:40:52.846Z,-1.70
2023-01-26T11:43:32.810Z,-1.70
2023-01-26T11:46:21.131Z,-1.70
2023-01-26T11:49:06.201Z,-1.70
2023-01-26T11:51:38.066Z,-1.70
2023-01-26T11:54:21.765Z,-1.70
2023-01-26T11:56:50.137Z,-1.60
2023-01-26T11:59:22.612Z,-1.70
2023-01-26T12:01:54.587Z,-1.70
2023-01-26T12:04:22.530Z,-1.70
2023-01-26T12:07:06.893Z,-1.60
2023-01-26T12:09:43.396Z,-1.70
2023-01-26T12:12:20.220Z,-1.70
2023-01-26T12:14:57.840Z,-1.70
2023-01-26T12:17:39.735Z,-1.70
2023-01-26T12:20:17.828Z,-1.70
2023-01-26T12:22:49.907Z,-1.70
2023-01-26T12:25:27.351Z,-1.70
2023-01-26T12:28:18.186Z,-1.70
2023-01-26T12:31:15.901Z,-1.70
2023-01-26T12:33:42.743Z,-0.90
2023-01-26T12:36:28.646Z,-1.70
2023-01-26T12:39:01.834Z,-1.70
2023-01-26T12:41:49.198Z,-1.70
2023-01-26T12:44:50.241Z,-1.60
2023-01-26T12:47:24.801Z,-1.70
2023-01-26T12:50:30.217Z,-1.70
2023-01-26T12:53:04.703Z,-1.70
2023-01-26T12:55:36.955Z,-1.70
2023-01-26T12:58:11.051Z,-1.70
2023-01-26T13:00:39.131Z,-1.60
2023-01-26T13:03:25.833Z,-1.70
2023-01-26T13:05:58.043Z,-1.70
2023-01-26T13:08:30.875Z,-1.70
2023-01-26T13:11:01.918Z,-1.70
2023-01-26T13:13:30.178Z,-1.70
2023-01-26T13:16:16.873Z,-1.60
2023-01-26T13:18:51.881Z,-1.50
2023-01-26T13:21:37.424Z,-1.50
2023-01-26T13:24:24.507Z,-1.60
2023-01-26T13:26:56.863Z,-1.60
2023-01-26T13:29:28.440Z,-1.60
2023-01-26T13:31:56.828Z,-1.50
2023-01-26T13:34:30.060Z,-1.50
2023-01-26T13:37:04.399Z,-1.50
2023-01-26T13:39:39.345Z,-1.50
2023-01-26T13:42:27.624Z,-1.50
2023-01-26T13:45:02.215Z,-1.50
2023-01-26T13:47:36.129Z,-1.40
2023-01-26T13:50:31.805Z,-1.50
2023-01-26T13:52:58.919Z,-1.50
2023-01-26T13:55:31.163Z,-1.50
2023-01-26T13:58:11.142Z,-1.50
2023-01-26T14:00:37.881Z,-1.50
2023-01-26T14:03:04.590Z,-1.50
2023-01-26T14:05:31.876Z,-1.50
2023-01-26T14:07:59.769Z,-1.40
2023-01-26T14:10:27.908Z,-1.40
2023-01-26T14:12:58.686Z,-1.40
2023-01-26T14:15:30.859Z,-1.40
2023-01-26T14:17:59.658Z,-1.40
2023-01-26T14:20:39.286Z,-0.70
2023-01-26T14:23:14.955Z,-1.40
2023-01-26T14:25:59.619Z,-1.50
2023-01-26T14:28:31.193Z,-1.50
2023-01-26T14:31:03.028Z,-1.50
2023-01-26T14:33:30.749Z,-1.50
2023-01-26T14:35:59.929Z,-1.50
2023-01-26T14:38:28.862Z,-1.50
2023-01-26T14:40:57.325Z,-1.50
2023-01-26T14:43:24.508Z,-1.50
2023-01-26T14:46:10.551Z,-1.60
2023-01-26T14:49:08.204Z,-1.60
2023-01-26T14:51:35.321Z,-1.60
2023-01-26T14:54:07.447Z,-1.60
2023-01-26T14:56:39.277Z,-1.70
2023-01-26T14:59:07.432Z,-1.80
2023-01-26T15:01:34.471Z,-1.80
2023-01-26T15:04:21.769Z,-1.80
2023-01-26T15:06:48.638Z,-1.90
2023-01-26T15:09:26.355Z,-1.90
2023-01-26T15:12:16.704Z,-1.90
2023-01-26T15:14:46.405Z,-1.90
2023-01-26T15:17:38.596Z,-1.90
2023-01-26T15:20:25.549Z,-2.00
2023-01-26T15:22:53.563Z,-2.00
2023-01-26T15:25:27.813Z,-2.00
2023-01-26T15:27:59.218Z,-2.10
2023-01-26T15:30:29.619Z,-2.00
2023-01-26T15:32:57.559Z,-2.00
2023-01-26T15:35:25.845Z,-2.10
2023-01-26T15:38:12.495Z,-2.00
2023-01-26T15:40:39.977Z,-1.90
2023-01-26T15:43:17.774Z,-2.00
2023-01-26T15:45:51.606Z,-2.10
2023-01-26T15:48:18.844Z,-2.10
2023-01-26T15:50:47.391Z,-2.10
2023-01-26T15:53:22.394Z,-2.10
2023-01-26T15:55:52.871Z,-2.10
2023-01-26T15:58:19.748Z,-2.10
2023-01-26T16:00:46.656Z,-2.10
2023-01-26T16:03:16.366Z,-2.20
2023-01-26T16:05:44.066Z,-2.20
2023-01-26T16:08:10.875Z,-2.00
2023-01-26T16:10:38.420Z,-2.20
2023-01-26T16:13:10.996Z,-2.20
2023-01-26T16:15:47.323Z,-2.20
2023-01-26T16:18:14.418Z,-2.20
2023-01-26T16:20:42.527Z,-2.20
2023-01-26T16:23:24.105Z,-2.20
2023-01-26T16:25:51.395Z,-2.20
2023-01-26T16:28:19.040Z,-2.30
2023-01-26T16:30:47.441Z,-2.30
2023-01-26T16:33:17.238Z,-2.30
2023-01-26T16:35:44.111Z,-2.30
2023-01-26T16:38:13.160Z,-2.30
2023-01-26T16:40:44.889Z,-2.30
2023-01-26T16:43:38.062Z,-2.30
2023-01-26T16:46:04.925Z,-2.30
2023-01-26T16:48:34.644Z,-2.30
2023-01-26T16:51:07.381Z,-2.40
2023-01-26T16:53:35.012Z,-2.40
2023-01-26T16:56:02.177Z,-2.30
2023-01-26T16:58:30.480Z,-2.30
2023-01-26T17:00:57.569Z,-2.30
2023-01-26T17:03:24.305Z,-2.40
2023-01-26T17:05:50.981Z,-2.30
2023-01-26T17:08:17.702Z,-2.30
2023-01-26T17:11:00.604Z,-2.30
2023-01-26T17:13:28.077Z,-2.40
2023-01-26T17:15:56.545Z,-2.30
2023-01-26T17:18:23.511Z,-2.40
2023-01-26T17:20:50.174Z,-2.40
2023-01-26T17:23:16.857Z,-2.40
2023-01-26T17:25:43.548Z,-2.40
2023-01-26T17:28:10.274Z,-2.40
2023-01-26T17:30:37.712Z,-2.40
2023-01-26T17:33:04.494Z,-2.40
2023-01-26T17:35:31.203Z,-2.40
2023-01-26T17:37:57.850Z,-2.40
2023-01-26T17:40:24.503Z,-2.50
2023-01-26T17:42:51.217Z,-2.50
2023-01-26T17:45:17.976Z,-2.50
2023-01-26T17:47:44.665Z,-2.50
2023-01-26T17:50:12.192Z,-2.50
2023-01-26T17:52:39.100Z,-2.50
2023-01-26T17:55:07.743Z,-2.50
2023-01-26T17:57:34.749Z,-2.50
2023-01-26T18:00:01.705Z,-2.50
2023-01-26T18:02:28.790Z,-2.50
2023-01-26T18:04:55.685Z,-2.50
2023-01-26T18:07:24.578Z,-2.60
2023-01-26T18:09:51.253Z,-2.50
2023-01-26T18:12:17.923Z,-2.50
2023-01-26T18:14:44.846Z,-2.60
2023-01-26T18:17:11.646Z,-2.60
2023-01-26T18:19:38.295Z,-2.60
2023-01-26T18:22:04.963Z,-2.60
2023-01-26T18:24:31.687Z,-2.60
2023-01-26T18:26:58.576Z,-2.60
2023-01-26T18:29:25.425Z,-2.50
2023-01-26T18:31:52.361Z,-2.50
2023-01-26T18:34:19.282Z,-2.50
2023-01-26T18:36:46.033Z,-2.50
2023-01-26T18:39:16.620Z,-2.50
2023-01-26T18:41:43.993Z,-2.50
2023-01-26T18:44:10.735Z,-2.50
2023-01-26T18:46:37.657Z,-2.50
2023-01-26T18:49:04.678Z,-2.60
2023-01-26T18:51:33.402Z,-2.60
2023-01-26T18:54:00.753Z,-2.50
2023-01-26T18:56:27.856Z,-2.50
2023-01-26T18:58:54.790Z,-2.60
2023-01-26T19:01:22.086Z,-2.60
2023-01-26T19:03:54.030Z,-2.60
2023-01-26T19:06:22.110Z,-2.30
2023-01-26T19:09:12.254Z,-2.60
2023-01-26T19:11:40.395Z,-2.60
2023-01-26T19:14:07.828Z,-2.60
2023-01-26T19:16:37.550Z,-2.70
2023-01-26T19:19:05.034Z,-2.60
2023-01-26T19:21:33.870Z,-2.60
2023-01-26T19:24:06.175Z,-2.70
2023-01-26T19:26:33.330Z,-2.60
2023-01-26T19:29:00.116Z,-2.60
2023-01-26T19:31:27.573Z,-2.60
2023-01-26T19:33:56.405Z,-2.60
2023-01-26T19:36:23.604Z,-2.60
2023-01-26T19:38:50.325Z,-2.50
2023-01-26T19:41:17.838Z,-2.50
2023-01-26T19:43:44.561Z,-2.60
2023-01-26T19:46:15.420Z,-2.60
2023-01-26T19:48:42.383Z,-2.60
2023-01-26T19:51:12.881Z,-2.60
2023-01-26T19:53:42.254Z,-2.60
2023-01-26T19:56:14.304Z,-2.60
2023-01-26T19:58:41.001Z,-2.60
2023-01-26T20:01:10.869Z,-2.70
2023-01-26T20:03:38.396Z,-2.70
2023-01-26T20:06:06.203Z,-2.70
2023-01-26T20:08:33.255Z,-2.60
2023-01-26T20:11:07.658Z,-2.70
2023-01-26T20:13:35.179Z,-2.50
2023-01-26T20:16:02.606Z,-2.70
2023-01-26T20:18:29.510Z,-2.70
2023-01-26T20:20:57.450Z,-2.70
2023-01-26T20:23:27.240Z,-2.70
2023-01-26T20:26:04.529Z,-2.70
2023-01-26T20:28:31.557Z,-2.80
2023-01-26T20:31:10.322Z,-2.70
2023-01-26T20:33:38.453Z,-2.60
2023-01-26T20:36:11.151Z,-2.60
2023-01-26T20:38:38.232Z,-2.60
2023-01-26T20:41:14.441Z,-2.70
2023-01-26T20:43:49.453Z,-2.70
2023-01-26T20:46:24.351Z,-2.70
2023-01-26T20:48:51.902Z,-2.70
2023-01-26T20:51:20.717Z,-2.60
2023-01-26T20:53:48.676Z,-2.70
2023-01-26T20:56:16.643Z,-2.60
2023-01-26T20:58:44.080Z,-2.60
2023-01-26T21:01:13.758Z,-2.70
2023-01-26T21:03:41.766Z,-2.60
2023-01-26T21:06:10.379Z,-2.70
2023-01-26T21:08:37.430Z,-2.70
2023-01-26T21:11:07.818Z,-2.70
2023-01-26T21:13:37.941Z,-2.70
2023-01-26T21:16:05.376Z,-2.60
2023-01-26T21:18:32.237Z,-2.70
2023-01-26T21:21:01.087Z,-2.70
2023-01-26T21:23:27.871Z,-2.70
2023-01-26T21:25:58.831Z,-2.70
2023-01-26T21:28:26.300Z,-2.70
2023-01-26T21:31:06.460Z,-2.70
2023-01-26T21:33:36.313Z,-2.70
2023-01-26T21:36:04.929Z,-2.70
2023-01-26T21:38:33.822Z,-2.60
2023-01-26T21:41:25.980Z,-2.60
2023-01-26T21:44:04.022Z,-2.60
2023-01-26T21:46:30.983Z,-2.60
2023-01-26T21:48:57.847Z,-2.70
2023-01-26T21:51:44.009Z,-2.70
2023-01-26T21:54:11.524Z,-2.70
2023-01-26T21:56:38.583Z,-2.60
2023-01-26T21:59:08.201Z,-2.70
2023-01-26T22:01:37.381Z,-2.70
2023-01-26T22:04:07.616Z,-2.70
2023-01-26T22:06:35.169Z,-2.70
2023-01-26T22:09:01.935Z,-2.70
2023-01-26T22:11:28.684Z,-2.70
2023-01-26T22:13:55.453Z,-2.70
2023-01-26T22:16:22.665Z,-2.70
2023-01-26T22:18:49.940Z,-2.70
2023-01-26T22:21:17.591Z,-2.70
2023-01-26T22:23:44.678Z,-2.70
2023-01-26T22:26:14.631Z,-2.70
2023-01-26T22:28:44.117Z,-2.50
2023-01-26T22:31:11.242Z,-2.50
2023-01-26T22:33:38.628Z,-2.70
2023-01-26T22:36:07.278Z,-2.50
2023-01-26T22:38:35.372Z,-2.70
2023-01-26T22:41:04.068Z,-2.70
2023-01-26T22:43:31.126Z,-2.60
2023-01-26T22:46:03.394Z,-2.60
2023-01-26T22:48:30.975Z,-2.50
2023-01-26T22:50:58.319Z,-2.50
2023-01-26T22:53:25.198Z,-2.50
2023-01-26T22:55:52.915Z,-2.50
2023-01-26T22:58:19.725Z,-2.50
2023-01-26T23:00:46.819Z,-2.50
2023-01-26T23:03:14.989Z,-2.30
2023-01-26T23:05:41.970Z,-2.50
2023-01-26T23:08:08.645Z,-2.40
2023-01-26T23:10:35.338Z,-2.40
2023-01-26T23:13:01.990Z,-2.40
2023-01-26T23:15:28.780Z,-2.30
2023-01-26T23:17:55.591Z,-2.40
2023-01-26T23:20:22.477Z,-2.40
2023-01-26T23:22:49.195Z,-2.40
2023-01-26T23:25:34.769Z,-2.40
2023-01-26T23:28:03.262Z,-2.40
2023-01-26T23:30:30.273Z,-2.40
2023-01-26T23:32:56.972Z,-2.30
2023-01-26T23:35:26.258Z,-2.30
2023-01-26T23:37:53.334Z,-2.30
2023-01-26T23:40:20.017Z,-2.30
2023-01-26T23:43:03.361Z,-2.30
2023-01-26T23:45:34.404Z,-2.30
2023-01-26T23:48:01.388Z,-2.30
2023-01-26T23:50:28.148Z,-2.30
2023-01-26T23:52:55.078Z,-2.20
2023-01-26T23:55:21.964Z,-2.20
2023-01-26T23:57:48.709Z,-2.20
